Bandarabbass, Iran
Current Conditions -  °F | °C
As of 8:30 AM on Tuesday 21 Oct 2014 (Local Time) from OIKB Reporting Station
Clear Clear  
Wind Chill: 86°   Ceiling: Unl
Heat Index: 95°   Visibility: 5mi
Dew Point: 75°   Wind: 7mph
Humidity: 70%   Direction: 70°ENE
Pressure: 29.97"   Gusts: NA
Location:  27.22°N, 56.37°E
Report Text: OIKB 210530Z 07006KT 8000 SKC 30/24 Q1015 A2998
Loading
Personal Weather Stations






























Interactive Weather Map
Tropical Storm Tracking
New forecast layout! Learn more

10-Day Weather Forecast

Advertisements
Track Severe Weather on mobile